6G6 weather

Cove Valley Airport
Williamsburg, Pennsylvania, United States

Public forecast

Using degrees Fahrenheit for public forecast. Weather courtesy of forecast.io.

METAR (pilot weather report)

Closest report is Altoona Blair County Airport, 10.2 nm (18.9 km) SSW. Retrieved 2019/05/26 23:53 UTC (36 minutes ago):

KAOO 262353Z AUTO 31008KT 10SM CLR 24/15 A2999 RMK AO2 SLP145 T02390150 10272 20239 50002

TAF (pilot weather forecast)

Forecast is more than 12 hours old.

Closest forecast is Altoona Blair County Airport, 10.2 nm (18.9 km) SSW. Retrieved 2019/05/26 00:51 UTC (24 hours ago):

TAF KAOO 262348Z 2700/2724 30005KT P6SM BKN080 FM270200 VRB04KT P6SM VCSH BKN050 FM270600 VRB03KT P6SM BKN050 FM270800 VRB02KT 4SM BR BKN015 FM271200 34004KT P6SM SCT050